Time;durP1;ratioP1;P1;durP2;ratioP2;P2;SDS_P1;SDS_P2;PMS_P1;PMS_P2;Temp;Humidity;BMP_temperature;BMP_pressure;BME280_temperature;BME280_humidity;BME280_pressure;Samples;Min_cycle;Max_cycle;Signal;HPM_P1;HPM_P2
2022/10/06 00:02:23;;;;;;;92.07;86.88;;;;;;;18.02;73.43;102303.97;5022715;28;103918;-55
2022/10/06 00:04:49;;;;;;;94.60;89.40;;;;;;;18.00;73.34;102303.44;5020778;28;102661;-55
2022/10/06 00:07:17;;;;;;;98.80;93.32;;;;;;;18.01;73.37;102301.50;5014857;28;102201;-55
2022/10/06 00:09:44;;;;;;;89.87;84.83;;;;;;;18.00;73.94;102294.34;5023365;28;102163;-55
2022/10/06 00:12:12;;;;;;;90.90;85.97;;;;;;;17.99;73.48;102290.78;5019507;28;104037;-55
2022/10/06 00:14:38;;;;;;;91.45;86.40;;;;;;;17.99;73.33;102293.53;5026502;28;102554;-55
2022/10/06 00:17:05;;;;;;;96.43;91.18;;;;;;;18.00;73.34;102295.19;5024719;27;102571;-55
2022/10/06 00:19:35;;;;;;;93.60;88.33;;;;;;;18.01;73.33;102298.75;5017210;28;102386;-56
2022/10/06 00:22:02;;;;;;;87.03;82.13;;;;;;;17.99;73.35;102296.28;5015193;28;104017;-55
2022/10/06 00:24:28;;;;;;;90.80;85.88;;;;;;;17.99;73.63;102307.31;5015844;28;102518;-55
2022/10/06 00:26:55;;;;;;;93.10;87.85;;;;;;;17.99;73.70;102301.81;5022245;27;103330;-55
2022/10/06 00:29:21;;;;;;;98.90;93.53;;;;;;;18.00;73.35;102308.94;5033092;28;102273;-55
2022/10/06 00:31:48;;;;;;;93.07;87.95;;;;;;;18.00;73.23;102314.47;5016057;27;103812;-55
2022/10/06 00:34:14;;;;;;;96.78;91.50;;;;;;;17.99;73.47;102310.06;5016254;28;102282;-55
2022/10/06 00:36:42;;;;;;;93.88;88.70;;;;;;;18.00;73.44;102314.47;5025881;28;102202;-55
2022/10/06 00:39:09;;;;;;;99.30;93.95;;;;;;;17.99;73.52;102312.81;5021868;28;102344;-55
2022/10/06 00:41:37;;;;;;;94.43;89.20;;;;;;;17.99;73.73;102312.81;5016895;27;103914;-55
2022/10/06 00:44:04;;;;;;;87.85;82.85;;;;;;;17.98;73.75;102311.16;5018665;28;102428;-55
2022/10/06 00:46:38;;;;;;;87.50;82.57;;;;;;;17.98;73.82;102311.16;5015459;28;102415;-55
2022/10/06 00:49:08;;;;;;;89.95;85.10;;;;;;;17.99;73.88;102312.81;5016725;28;102034;-55
2022/10/06 00:51:38;;;;;;;91.65;86.60;;;;;;;17.98;73.72;102310.31;5014993;28;104066;-55
2022/10/06 00:54:09;;;;;;;89.90;84.80;;;;;;;17.97;73.42;102304.00;5021870;28;102077;-55
2022/10/06 00:56:38;;;;;;;93.35;88.15;;;;;;;17.97;73.73;102309.50;5018495;28;102488;-55
2022/10/06 00:59:08;;;;;;;86.22;81.22;;;;;;;17.97;73.43;102298.50;5016148;28;102476;-55
2022/10/06 01:01:35;;;;;;;91.82;86.78;;;;;;;17.97;73.43;102298.50;5017019;28;104566;-54
2022/10/06 01:04:08;;;;;;;89.25;84.45;;;;;;;17.97;73.66;102301.25;5031167;27;102643;-55
2022/10/06 01:06:44;;;;;;;85.40;80.47;;;;;;;17.96;73.64;102296.84;5031132;28;102339;-55
2022/10/06 01:09:14;;;;;;;84.55;79.82;;;;;;;17.96;73.71;102291.34;5022158;27;102644;-55
2022/10/06 01:11:43;;;;;;;84.45;79.60;;;;;;;17.96;73.78;102280.31;5014885;27;103995;-55
2022/10/06 01:14:10;;;;;;;86.95;82.13;;;;;;;17.97;73.84;102270.13;5018722;28;101962;-55
2022/10/06 01:16:39;;;;;;;89.00;84.05;;;;;;;17.96;73.51;102265.72;5034224;27;102330;-55
2022/10/06 01:19:13;;;;;;;88.78;83.75;;;;;;;17.96;73.63;102277.56;5015900;28;102284;-55
2022/10/06 01:21:45;;;;;;;88.85;84.07;;;;;;;17.97;73.50;102281.97;5014696;28;103999;-55
2022/10/06 01:24:15;;;;;;;89.03;84.05;;;;;;;17.97;73.74;102275.63;5018848;28;102051;-56
2022/10/06 01:26:46;;;;;;;94.32;88.93;;;;;;;17.96;73.88;102274.81;5033729;28;102372;-55
2022/10/06 01:29:13;;;;;;;89.68;84.80;;;;;;;17.97;73.85;102275.63;5018281;28;102460;-55
2022/10/06 01:31:39;;;;;;;92.63;87.50;;;;;;;17.96;73.76;102274.00;5014727;28;103942;-56
2022/10/06 01:34:06;;;;;;;93.72;88.45;;;;;;;17.95;73.79;102267.63;5019397;27;101947;-55
2022/10/06 01:36:32;;;;;;;90.72;85.63;;;;;;;17.96;73.73;102257.47;5018095;28;102320;-55
2022/10/06 01:38:59;;;;;;;94.78;89.70;;;;;;;17.95;73.56;102259.38;5020518;27;102479;-55
2022/10/06 01:41:27;;;;;;;94.43;89.35;;;;;;;17.95;73.40;102253.88;5014511;28;105223;-55
2022/10/06 01:43:53;;;;;;;92.13;87.07;;;;;;;17.96;73.44;102260.22;5014364;27;103631;-55
2022/10/06 01:46:20;;;;;;;95.22;89.95;;;;;;;17.96;73.60;102258.28;5014176;28;102168;-55
2022/10/06 01:48:48;;;;;;;91.10;86.18;;;;;;;17.96;73.76;102268.50;5015263;28;102537;-55
2022/10/06 01:51:15;;;;;;;92.68;87.57;;;;;;;17.96;73.66;102274.81;5014907;28;104031;-54
2022/10/06 01:53:42;;;;;;;89.18;84.35;;;;;;;17.96;73.56;102274.00;5022812;28;102022;-54
2022/10/06 01:56:09;;;;;;;88.50;83.60;;;;;;;17.95;73.70;102275.91;5018899;27;102018;-55
2022/10/06 01:58:37;;;;;;;93.15;88.13;;;;;;;17.95;73.88;102278.66;5016051;28;104268;-55
2022/10/06 02:01:05;;;;;;;97.78;92.40;;;;;;;17.95;73.76;102278.66;5019613;27;104104;-55
2022/10/06 02:03:32;;;;;;;;;;;;;;;17.95;73.70;102275.91;5027046;28;102085;-55
2022/10/06 02:05:59;;;;;;;59.25;55.65;;;;;;;17.95;73.43;102269.56;5021304;27;102490;-55
2022/10/06 02:08:25;;;;;;;81.70;76.93;;;;;;;17.95;73.80;102278.66;5036047;27;102585;-55
2022/10/06 02:10:53;;;;;;;84.32;79.57;;;;;;;17.96;73.51;102274.00;5029177;27;103920;-55
2022/10/06 02:13:22;;;;;;;86.80;81.97;;;;;;;17.95;73.66;102278.66;5017294;28;102158;-55
2022/10/06 02:15:54;;;;;;;92.70;87.50;;;;;;;17.95;73.63;102275.91;5014040;28;102121;-55
2022/10/06 02:18:21;;;;;;;88.93;84.13;;;;;;;17.94;73.70;102273.44;5019414;28;102353;-55
2022/10/06 02:20:47;;;;;;;92.80;87.82;;;;;;;17.94;74.06;102274.25;5028214;28;104068;-55
2022/10/06 02:23:14;;;;;;;92.18;87.22;;;;;;;17.94;73.38;102266.00;5018564;27;102229;-55
2022/10/06 02:25:42;;;;;;;92.30;87.35;;;;;;;17.94;73.96;102266.00;5013553;28;102184;-55
2022/10/06 02:28:09;;;;;;;88.43;83.43;;;;;;;17.93;74.07;102269.88;5015953;28;102514;-55
2022/10/06 02:30:36;;;;;;;93.13;88.05;;;;;;;17.94;73.89;102262.44;5018692;27;103915;-59
2022/10/06 02:33:03;;;;;;;91.05;86.10;;;;;;;17.94;73.44;102259.66;5014678;27;101972;-55
2022/10/06 02:35:30;;;;;;;90.37;85.10;;;;;;;17.93;73.72;102256.09;5013571;28;102303;-55
2022/10/06 02:37:57;;;;;;;91.07;86.07;;;;;;;17.94;73.79;102260.50;5028013;28;102082;-55
2022/10/06 02:40:23;;;;;;;90.97;86.07;;;;;;;17.93;73.64;102247.84;5024758;27;103938;-55
2022/10/06 02:42:50;;;;;;;98.45;92.97;;;;;;;17.93;73.57;102253.34;5014234;28;102274;-55
2022/10/06 02:45:16;;;;;;;97.57;92.22;;;;;;;17.94;74.00;102243.97;5013804;28;102008;-55
2022/10/06 02:47:43;;;;;;;88.13;83.32;;;;;;;17.93;73.77;102245.09;5020086;28;103545;-55
2022/10/06 02:50:12;;;;;;;94.68;89.47;;;;;;;17.94;73.99;102252.22;5014013;28;104208;-55
2022/10/06 02:52:41;;;;;;;88.85;83.90;;;;;;;17.94;73.89;102243.16;5017722;28;102392;-55
2022/10/06 02:55:10;;;;;;;90.57;85.53;;;;;;;17.94;73.32;102249.47;5034038;28;102618;-55
2022/10/06 02:57:36;;;;;;;93.47;88.43;;;;;;;17.93;73.69;102242.31;5018219;27;104287;-55
2022/10/06 03:00:06;;;;;;;96.95;91.82;;;;;;;17.93;73.85;102234.06;5017044;28;104114;-55
2022/10/06 03:02:33;;;;;;;86.60;81.78;;;;;;;17.93;73.58;102247.84;5027245;27;102656;-55
2022/10/06 03:05:00;;;;;;;94.25;89.22;;;;;;;17.93;73.94;102256.09;5016935;28;102019;-55
2022/10/06 03:07:27;;;;;;;95.95;90.85;;;;;;;17.93;73.99;102253.34;5022383;27;102229;-55
2022/10/06 03:09:56;;;;;;;86.05;81.28;;;;;;;17.93;73.96;102256.09;5015987;28;104019;-55
2022/10/06 03:12:23;;;;;;;94.47;89.28;;;;;;;17.93;73.89;102258.84;5016976;28;102215;-55
2022/10/06 03:14:49;;;;;;;94.10;88.88;;;;;;;17.92;73.96;102248.94;5016975;28;102479;-54
2022/10/06 03:17:16;;;;;;;95.38;90.20;;;;;;;17.93;73.67;102250.59;5018470;28;102128;-55
2022/10/06 03:19:43;;;;;;;95.88;90.78;;;;;;;17.93;73.58;102260.78;5016813;27;103999;-55
2022/10/06 03:22:09;;;;;;;94.85;89.68;;;;;;;17.93;73.91;102267.13;5016869;28;102382;-55
2022/10/06 03:24:38;;;;;;;91.07;86.13;;;;;;;17.94;73.58;102256.91;5032206;28;102544;-55
2022/10/06 03:27:04;;;;;;;86.85;82.18;;;;;;;17.93;73.47;102256.09;5018105;28;102751;-55
2022/10/06 03:29:31;;;;;;;91.95;86.97;;;;;;;17.92;74.19;102251.72;5032771;28;103669;-55
2022/10/06 03:31:58;;;;;;;92.50;87.50;;;;;;;17.93;73.53;102264.38;5017262;28;102516;-55
2022/10/06 03:34:24;;;;;;;86.20;81.47;;;;;;;17.92;74.05;102250.84;5017962;28;102415;-57
2022/10/06 03:36:51;;;;;;;93.38;88.30;;;;;;;17.92;73.98;102257.22;5019761;28;102665;-57
2022/10/06 03:39:18;;;;;;;95.72;90.60;;;;;;;17.93;73.75;102264.38;5020091;27;104092;-55
2022/10/06 03:41:47;;;;;;;95.15;89.82;;;;;;;17.92;73.77;102254.47;5016496;28;102015;-55
2022/10/06 03:44:14;;;;;;;87.70;82.82;;;;;;;17.92;73.79;102254.47;5016601;28;102025;-55
2022/10/06 03:46:41;;;;;;;84.53;79.78;;;;;;;17.91;74.14;102252.78;5026101;28;102235;-55
2022/10/06 03:49:08;;;;;;;94.95;89.97;;;;;;;17.92;74.24;102248.94;5029944;27;103862;-55
2022/10/06 03:51:36;;;;;;;91.00;86.15;;;;;;;17.93;73.74;102245.09;5022354;27;102154;-55
2022/10/06 03:54:03;;;;;;;83.03;78.53;;;;;;;17.92;74.02;102240.69;5023534;27;102094;-55
2022/10/06 03:56:31;;;;;;;93.20;88.10;;;;;;;17.92;73.82;102246.19;5017473;27;102683;-55
2022/10/06 03:59:01;;;;;;;85.07;80.43;;;;;;;17.92;74.12;102246.19;5015835;28;104094;-54
2022/10/06 04:01:29;;;;;;;84.28;79.65;;;;;;;17.92;73.74;102240.69;5016218;28;102488;-55
2022/10/06 04:03:57;;;;;;;86.37;81.67;;;;;;;17.92;74.04;102257.22;5019540;27;102446;-55
2022/10/06 04:06:25;;;;;;;89.00;84.10;;;;;;;17.92;73.97;102257.22;5024165;28;102142;-54
2022/10/06 04:08:53;;;;;;;94.30;89.25;;;;;;;17.91;74.05;102258.28;5022552;27;103919;-54
2022/10/06 04:11:22;;;;;;;88.32;83.47;;;;;;;17.92;73.76;102261.88;5025696;27;102347;-55
2022/10/06 04:13:51;;;;;;;;;;;;;;;17.92;74.14;102262.72;5020635;27;102049;-55
2022/10/06 04:16:19;;;;;;;;;;;;;;;17.91;73.96;102263.81;5022014;28;102954;-55
2022/10/06 04:18:49;;;;;;;49.58;46.63;;;;;;;17.91;73.95;102269.31;5025017;27;103842;-55
2022/10/06 04:21:16;;;;;;;59.75;56.28;;;;;;;17.91;73.83;102266.56;5027353;27;102290;-55
2022/10/06 04:23:43;;;;;;;73.07;69.10;;;;;;;17.91;74.10;102271.25;5016123;28;102461;-55
2022/10/06 04:26:11;;;;;;;78.07;73.88;;;;;;;17.92;73.59;102268.22;5015608;28;103575;-55
2022/10/06 04:28:40;;;;;;;85.18;80.43;;;;;;;17.90;73.62;102264.91;5015483;28;104006;-55
2022/10/06 04:31:12;;;;;;;74.97;70.97;;;;;;;17.91;74.10;102274.81;5031255;27;102420;-55
2022/10/06 04:33:41;;;;;;;76.78;72.55;;;;;;;17.92;73.73;102272.88;5024673;27;102055;-55
2022/10/06 04:36:11;;;;;;;75.25;71.22;;;;;;;17.90;73.96;102267.69;5016823;28;102111;-54
2022/10/06 04:38:38;;;;;;;85.07;80.43;;;;;;;17.91;74.07;102271.25;5026971;28;103910;-55
2022/10/06 04:41:05;;;;;;;85.25;80.80;;;;;;;17.91;73.91;102271.25;5022932;27;102180;-54
2022/10/06 04:43:32;;;;;;;78.68;74.40;;;;;;;17.91;73.66;102274.00;5019017;28;102153;-54
2022/10/06 04:46:00;;;;;;;82.82;78.40;;;;;;;17.90;73.68;102277.88;5032317;27;102559;-55
2022/10/06 04:48:28;;;;;;;82.85;77.80;;;;;;;17.90;74.03;102280.63;5017875;28;104161;-55
2022/10/06 04:50:57;;;;;;;81.68;77.32;;;;;;;17.90;73.84;102286.97;5016788;28;102276;-55
2022/10/06 04:53:24;;;;;;;81.60;77.32;;;;;;;17.91;73.84;102288.59;5026756;28;102179;-55
2022/10/06 04:55:58;;;;;;;81.50;77.07;;;;;;;17.91;73.78;102283.09;5022294;27;102195;-55
2022/10/06 04:58:25;;;;;;;79.32;74.97;;;;;;;17.91;73.85;102285.03;5016667;28;104045;-55
2022/10/06 05:00:53;;;;;;;86.20;81.68;;;;;;;17.91;73.82;102280.34;5017263;28;102500;-55
2022/10/06 05:03:19;;;;;;;81.93;77.50;;;;;;;17.89;74.32;102274.31;5024260;28;102013;-55
2022/10/06 05:05:45;;;;;;;84.68;80.05;;;;;;;17.91;74.14;102285.03;5020530;28;102286;-55
2022/10/06 05:08:14;;;;;;;82.88;78.40;;;;;;;17.90;74.12;102288.91;5025447;27;103890;-55
2022/10/06 05:10:40;;;;;;;82.53;78.10;;;;;;;17.91;74.08;102287.78;5016853;28;102289;-54
2022/10/06 05:13:10;;;;;;;83.82;79.15;;;;;;;17.92;73.80;102287.50;5016546;28;102337;-55
2022/10/06 05:15:36;;;;;;;86.32;81.65;;;;;;;17.92;74.09;102278.41;5019459;28;102180;-55
2022/10/06 05:18:03;;;;;;;87.05;82.43;;;;;;;17.90;74.56;102275.94;5015685;28;103471;-55
2022/10/06 05:20:30;;;;;;;86.63;82.03;;;;;;;17.91;74.04;102285.84;5016120;28;102579;-55
2022/10/06 05:22:56;;;;;;;87.65;83.00;;;;;;;17.91;74.17;102288.59;5020323;28;102466;-55
2022/10/06 05:25:24;;;;;;;81.32;76.85;;;;;;;17.90;74.06;102278.69;5013794;28;102718;-55
2022/10/06 05:27:51;;;;;;;85.13;80.50;;;;;;;17.91;73.72;102283.09;5013606;28;103858;-55
2022/10/06 05:30:18;;;;;;;78.15;73.75;;;;;;;17.91;74.27;102290.53;5035157;28;101926;-55
2022/10/06 05:32:49;;;;;;;87.72;83.00;;;;;;;17.90;73.93;102286.97;5023192;27;102587;-56
2022/10/06 05:35:16;;;;;;;84.30;79.75;;;;;;;17.92;74.05;102289.41;5029665;28;102255;-55
2022/10/06 05:37:43;;;;;;;90.18;85.25;;;;;;;17.90;74.32;102297.97;5034363;27;103893;-55
2022/10/06 05:40:10;;;;;;;84.38;79.72;;;;;;;17.91;73.91;102302.38;5024439;27;102050;-54
2022/10/06 05:42:38;;;;;;;83.72;79.35;;;;;;;17.90;74.33;102309.00;4995472;28;102619;-53
2022/10/06 05:45:06;;;;;;;82.00;77.40;;;;;;;17.90;73.99;102309.00;4992909;28;102235;-54
2022/10/06 05:47:32;;;;;;;82.30;77.90;;;;;;;17.91;74.09;102309.81;5001360;28;104057;-54
2022/10/06 05:49:59;;;;;;;82.88;78.32;;;;;;;17.90;74.00;102314.50;4996662;28;102681;-53
2022/10/06 05:52:25;;;;;;;86.63;81.95;;;;;;;17.91;73.77;102310.63;4996061;28;102814;-54
2022/10/06 05:54:53;;;;;;;83.15;78.57;;;;;;;17.91;74.28;102309.81;5004284;28;102158;-55
2022/10/06 05:57:20;;;;;;;83.10;78.65;;;;;;;17.90;74.00;102317.25;4996869;28;104169;-54
2022/10/06 05:59:47;;;;;;;89.95;85.13;;;;;;;17.91;74.03;102316.13;4996280;28;101897;-54
2022/10/06 06:02:14;;;;;;;85.63;81.05;;;;;;;17.91;73.95;102310.63;5005135;28;102044;-54
2022/10/06 06:04:41;;;;;;;81.75;77.20;;;;;;;17.91;74.35;102318.91;4997321;28;102344;-55
2022/10/06 06:07:08;;;;;;;86.43;81.63;;;;;;;17.91;73.83;102320.81;5001911;28;103806;-53
2022/10/06 06:09:35;;;;;;;92.05;86.95;;;;;;;17.91;74.08;102315.31;5004582;28;102192;-54
2022/10/06 06:12:02;;;;;;;89.32;84.53;;;;;;;17.92;74.42;102314.19;5009955;28;102488;-54
2022/10/06 06:17:15;;;;;;;79.45;75.18;;;;;;;17.92;73.97;102317.81;5006774;28;104061;-54
2022/10/06 06:19:42;;;;;;;80.07;75.55;;;;;;;17.92;73.97;102319.72;5005509;28;103403;-54
2022/10/06 06:22:08;;;;;;;80.38;76.13;;;;;;;17.92;74.18;102320.56;5005057;28;102397;-55
2022/10/06 06:24:34;;;;;;;87.72;82.93;;;;;;;17.93;74.13;102319.44;5007160;28;103756;-54
2022/10/06 06:27:02;;;;;;;83.40;78.88;;;;;;;17.92;73.98;102328.81;5004901;28;103951;-55
2022/10/06 06:29:28;;;;;;;87.07;82.18;;;;;;;17.92;73.98;102323.31;5019188;28;101922;-54
2022/10/06 06:31:55;;;;;;;82.70;77.85;;;;;;;17.93;73.96;102324.97;5010822;28;102468;-54
2022/10/06 06:34:24;;;;;;;86.10;81.43;;;;;;;17.92;74.09;102328.81;5016443;28;102255;-54
2022/10/06 06:36:53;;;;;;;81.43;76.70;;;;;;;17.92;74.29;102328.81;5015772;27;103926;-54
2022/10/06 06:39:20;;;;;;;79.43;75.18;;;;;;;17.93;74.04;102329.66;5007949;28;102593;-54
2022/10/06 06:41:47;;;;;;;83.95;79.45;;;;;;;17.92;74.45;102328.81;5009657;28;102511;-54
2022/10/06 06:44:14;;;;;;;88.45;83.70;;;;;;;17.92;73.97;102331.59;5001412;28;102155;-55
2022/10/06 06:46:43;;;;;;;83.80;79.32;;;;;;;17.92;73.96;102331.59;4996584;28;103881;-54
2022/10/06 06:49:11;;;;;;;89.35;84.53;;;;;;;17.92;74.24;102334.34;4997760;28;102350;-54
2022/10/06 06:51:40;;;;;;;86.00;81.40;;;;;;;17.92;74.30;102333.47;5001635;28;102376;-54
2022/10/06 06:54:08;;;;;;;88.43;83.78;;;;;;;17.93;74.06;102335.16;5015247;28;102321;-54
2022/10/06 06:56:35;;;;;;;;;;;;;;;17.92;74.18;102345.34;5012538;28;103867;-54
2022/10/06 06:59:09;;;;;;;55.17;51.90;;;;;;;17.92;74.25;102339.00;5009059;28;102559;-54
2022/10/06 07:01:43;;;;;;;74.00;69.82;;;;;;;17.91;73.98;102340.94;5013109;28;102271;-54
2022/10/06 07:04:10;;;;;;;79.97;75.50;;;;;;;17.92;74.37;102339.84;4999177;28;102514;-54
2022/10/06 07:06:39;;;;;;;78.78;74.45;;;;;;;17.92;74.30;102339.84;4996059;28;104246;-54
2022/10/06 07:09:07;;;;;;;73.53;69.38;;;;;;;17.92;74.46;102339.84;4997910;28;102475;-54
2022/10/06 07:11:36;;;;;;;76.53;72.32;;;;;;;17.93;74.37;102340.66;5011386;28;102496;-54
2022/10/06 07:14:04;;;;;;;81.15;76.63;;;;;;;17.92;74.29;102334.34;5016444;28;102456;-54
2022/10/06 07:25:06;;;;;;;70.85;66.70;;;;;;;17.96;74.45;102332.66;4994915;28;102256;-55
2022/10/06 07:27:34;;;;;;;78.38;74.20;;;;;;;18.00;73.96;102332.91;4994828;28;103919;-54
2022/10/06 07:30:01;;;;;;;77.72;73.25;;;;;;;18.04;74.20;102341.44;5004598;28;102735;-54
2022/10/06 07:32:30;;;;;;;81.85;77.05;;;;;;;18.04;74.13;102331.25;5011864;28;102555;-54
2022/10/06 07:34:57;;;;;;;80.38;75.82;;;;;;;18.07;73.74;102325.19;5013534;28;102017;-54
2022/10/06 07:37:27;;;;;;;82.65;77.90;;;;;;;18.10;73.91;102323.75;5012863;28;103874;-54
2022/10/06 07:39:54;;;;;;;86.60;81.93;;;;;;;18.11;73.54;102326.25;5007072;28;102418;-54
2022/10/06 07:42:23;;;;;;;83.75;79.30;;;;;;;18.13;73.39;102332.28;5012697;27;102350;-55
2022/10/06 07:47:39;;;;;;;87.97;83.22;;;;;;;18.17;73.40;102319.59;4991735;28;103915;-54
2022/10/06 07:50:07;;;;;;;90.07;85.22;;;;;;;18.20;73.54;102320.97;5011251;28;102380;-54
2022/10/06 07:52:38;;;;;;;90.95;86.05;;;;;;;18.20;73.37;102324.53;4998203;27;102146;-54
2022/10/06 07:55:11;;;;;;;88.00;83.30;;;;;;;18.22;73.29;102314.06;5002263;28;102207;-54
2022/10/06 07:57:37;;;;;;;93.10;88.20;;;;;;;18.25;73.25;102318.19;5011355;28;104001;-54
2022/10/06 08:00:06;;;;;;;91.22;86.47;;;;;;;18.26;73.32;102317.09;4999131;27;102143;-54
2022/10/06 08:02:32;;;;;;;87.95;83.32;;;;;;;18.27;73.33;102315.97;5005927;28;102353;-54
2022/10/06 08:04:59;;;;;;;94.50;89.63;;;;;;;18.29;73.42;102318.44;5008209;28;102318;-54
2022/10/06 08:07:27;;;;;;;90.25;85.55;;;;;;;18.30;74.01;102317.34;4998521;28;108030;-53
2022/10/06 08:09:55;;;;;;;98.15;92.90;;;;;;;18.31;73.44;102313.47;4994385;28;102488;-55
2022/10/06 08:12:36;;;;;;;95.97;90.93;;;;;;;18.33;73.23;102312.06;5006796;28;101954;-53
2022/10/06 08:15:06;;;;;;;94.72;89.68;;;;;;;18.35;73.46;102312.59;5006110;28;102177;-54
2022/10/06 08:17:35;;;;;;;99.40;94.22;;;;;;;18.34;73.08;102308.19;5011389;28;104093;-54
2022/10/06 08:20:02;;;;;;;100.85;95.60;;;;;;;18.36;73.26;102303.25;5008700;28;102526;-55
2022/10/06 08:22:29;;;;;;;113.25;107.53;;;;;;;18.36;72.61;102300.50;5003798;28;102867;-54
2022/10/06 08:24:57;;;;;;;114.00;108.28;;;;;;;18.37;72.48;102307.63;5009969;28;103683;-54
2022/10/06 08:27:24;;;;;;;115.25;109.38;;;;;;;18.38;72.40;102306.53;5007463;28;103917;-54
2022/10/06 08:29:50;;;;;;;119.88;113.70;;;;;;;18.39;72.52;102299.06;5006057;28;102814;-54
2022/10/06 08:32:19;;;;;;;122.05;115.75;;;;;;;18.39;72.92;102299.91;5002472;28;102848;-54
2022/10/06 08:34:46;;;;;;;108.10;102.53;;;;;;;18.41;72.82;102286.66;5013285;28;102313;-54
2022/10/06 08:37:12;;;;;;;122.60;116.20;;;;;;;18.41;73.02;102297.69;5006945;28;104078;-55
2022/10/06 08:39:41;;;;;;;127.68;121.10;;;;;;;18.41;72.71;102281.16;5003880;28;102232;-54
2022/10/06 08:42:15;;;;;;;;;;;;;;;18.42;72.62;102281.97;5004316;28;102109;-54
2022/10/06 08:44:45;;;;;;;83.45;79.13;;;;;;;18.43;72.76;102278.94;5007085;28;102494;-54
2022/10/06 08:47:17;;;;;;;105.47;100.07;;;;;;;18.42;72.18;102279.22;5014687;28;103985;-54
2022/10/06 08:49:46;;;;;;;123.57;117.38;;;;;;;18.44;72.18;102279.75;5008626;28;103668;-55
2022/10/06 08:52:25;;;;;;;120.35;114.20;;;;;;;18.45;72.34;102279.47;5013195;28;102168;-54
2022/10/06 08:55:05;;;;;;;121.72;115.57;;;;;;;18.44;72.01;102277.81;5006977;28;102360;-54
2022/10/06 08:57:40;;;;;;;114.47;108.55;;;;;;;18.45;72.14;102276.69;5003785;28;103806;-54
2022/10/06 09:00:10;;;;;;;126.60;120.15;;;;;;;18.45;72.34;102276.69;5014355;28;102782;-54
2022/10/06 09:02:44;;;;;;;124.47;118.10;;;;;;;18.46;72.34;102277.53;5003532;28;102058;-55
2022/10/06 09:05:18;;;;;;;126.13;119.80;;;;;;;18.47;72.26;102274.50;4996520;28;102036;-54
2022/10/06 09:08:02;;;;;;;127.70;121.30;;;;;;;18.46;72.10;102272.84;4997816;28;103972;-54
2022/10/06 09:10:42;;;;;;;125.65;119.32;;;;;;;18.46;72.02;102270.09;5012349;28;102220;-54
2022/10/06 09:13:16;;;;;;;133.50;126.70;;;;;;;18.47;72.50;102270.91;5011039;28;102290;-54
2022/10/06 09:15:49;;;;;;;137.38;130.45;;;;;;;18.47;72.42;102274.50;5012466;28;102157;-54
2022/10/06 09:18:23;;;;;;;134.05;127.35;;;;;;;18.47;72.10;102276.44;5004483;28;103753;-54
2022/10/06 09:20:55;;;;;;;132.15;125.57;;;;;;;18.47;72.28;102268.97;5007840;28;104529;-54
2022/10/06 09:26:14;;;;;;;124.10;117.72;;;;;;;18.48;72.28;102273.38;5005558;28;104848;-54
2022/10/06 09:28:46;;;;;;;132.80;126.18;;;;;;;18.47;72.21;102266.22;4998597;28;103100;-54
2022/10/06 09:31:20;;;;;;;138.93;131.90;;;;;;;18.48;72.78;102264.28;4997389;28;102120;-54
2022/10/06 09:33:50;;;;;;;122.10;115.88;;;;;;;18.48;72.34;102265.09;5002816;28;102885;-54
2022/10/06 09:36:16;;;;;;;133.00;126.25;;;;;;;18.48;72.11;102261.53;4993583;28;102366;-55
2022/10/06 09:38:52;;;;;;;137.75;130.82;;;;;;;18.47;72.24;102266.22;4998744;28;104736;-54
2022/10/06 09:41:23;;;;;;;134.13;127.43;;;;;;;18.49;72.03;102266.75;5010151;28;102413;-54
2022/10/06 09:43:55;;;;;;;138.82;131.75;;;;;;;18.46;72.10;102256.31;4990128;28;102433;-54
2022/10/06 09:46:28;;;;;;;137.48;130.65;;;;;;;18.47;71.92;102263.47;4975932;28;102392;-54
2022/10/06 09:49:19;;;;;;;139.80;132.82;;;;;;;18.46;71.76;102261.81;4982340;28;103944;-54
2022/10/06 09:52:01;;;;;;;124.47;118.00;;;;;;;18.47;72.39;102257.97;4984675;28;102445;-54
2022/10/06 09:54:28;;;;;;;124.75;118.43;;;;;;;18.46;71.97;102261.81;4984292;28;102326;-54
2022/10/06 09:56:57;;;;;;;134.10;127.38;;;;;;;18.47;72.26;102265.41;4986218;28;102365;-54
2022/10/06 09:59:30;;;;;;;127.47;121.03;;;;;;;18.45;72.21;102262.09;4983463;28;103985;-54
2022/10/06 10:02:00;;;;;;;125.85;119.55;;;;;;;18.44;72.27;102258.53;4987328;28;102033;-54
2022/10/06 10:04:29;;;;;;;128.10;121.63;;;;;;;18.45;72.23;102265.69;4987820;28;102948;-54
2022/10/06 10:07:13;;;;;;;139.90;132.93;;;;;;;18.44;72.36;102260.47;4989138;28;102809;-54
2022/10/06 10:09:40;;;;;;;122.97;116.78;;;;;;;18.44;72.57;102258.53;4977606;28;103925;-54
2022/10/06 10:12:30;;;;;;;133.73;127.10;;;;;;;18.43;72.59;102248.63;4985351;28;102280;-54
2022/10/06 10:15:01;;;;;;;116.30;110.53;;;;;;;18.43;72.70;102251.38;4990331;28;102281;-54
2022/10/06 10:17:39;;;;;;;133.88;127.28;;;;;;;18.42;72.08;102246.94;4992655;28;102453;-55
2022/10/06 10:20:23;;;;;;;122.53;116.32;;;;;;;18.42;72.40;102244.19;4977540;28;105305;-55
2022/10/06 10:22:52;;;;;;;122.80;116.68;;;;;;;18.41;72.06;102231.53;4974555;28;102441;-54
2022/10/06 10:25:40;;;;;;;120.78;114.68;;;;;;;18.40;71.87;102232.66;4990716;28;103581;-53
2022/10/06 10:28:22;;;;;;;114.38;108.63;;;;;;;18.40;72.13;102226.31;4995857;28;102642;-54
2022/10/06 10:30:59;;;;;;;115.63;109.65;;;;;;;18.40;72.43;102229.88;4982524;28;103874;-54
2022/10/06 10:33:34;;;;;;;122.10;116.03;;;;;;;18.38;72.67;102226.59;4991171;28;102841;-54
2022/10/06 10:36:03;;;;;;;114.22;108.43;;;;;;;18.38;72.20;102226.59;4991803;28;101938;-54
2022/10/06 10:38:31;;;;;;;121.72;115.60;;;;;;;18.37;71.78;102224.94;4988607;28;102239;-54
2022/10/06 10:41:03;;;;;;;118.30;112.30;;;;;;;18.36;72.02;102217.81;4989999;28;104497;-54
2022/10/06 10:43:33;;;;;;;115.45;109.65;;;;;;;18.36;71.94;102215.03;4994897;28;101928;-54
2022/10/06 10:46:08;;;;;;;113.05;107.22;;;;;;;18.36;72.64;102215.03;4994143;28;101916;-54
2022/10/06 10:48:41;;;;;;;113.68;108.00;;;;;;;18.34;72.31;102220.00;4981141;28;102409;-54
2022/10/06 10:51:12;;;;;;;123.80;117.45;;;;;;;18.35;72.60;102221.66;4981500;28;103894;-55
2022/10/06 10:53:47;;;;;;;116.53;110.32;;;;;;;18.33;72.40;102223.88;4991670;28;102279;-54
2022/10/06 10:56:16;;;;;;;112.38;106.70;;;;;;;18.31;71.67;102217.81;4990891;28;102065;-55
2022/10/06 10:58:46;;;;;;;120.30;114.25;;;;;;;18.32;71.65;102213.97;5001765;28;102262;-54
2022/10/06 11:01:24;;;;;;;120.55;114.55;;;;;;;18.30;72.28;102209.84;4992542;28;103760;-54
2022/10/06 11:03:57;;;;;;;108.63;103.15;;;;;;;18.29;72.04;102211.78;4979116;28;102388;-54
2022/10/06 11:06:45;;;;;;;110.88;105.28;;;;;;;18.30;72.30;102207.91;4993774;28;102309;-53
2022/10/06 11:09:16;;;;;;;97.63;92.77;;;;;;;18.29;71.62;102206.28;4978597;28;102233;-54
2022/10/06 11:11:53;;;;;;;98.20;93.13;;;;;;;18.28;71.90;102199.09;4990827;28;103989;-54
2022/10/06 11:14:32;;;;;;;107.57;102.18;;;;;;;18.29;72.69;102209.03;4997961;28;102120;-54
2022/10/06 11:17:12;;;;;;;105.72;100.32;;;;;;;18.28;72.25;102204.59;4997465;28;102243;-54
2022/10/06 11:19:50;;;;;;;106.50;101.13;;;;;;;18.27;71.63;102202.97;4987355;28;102042;-55
2022/10/06 11:22:25;;;;;;;102.80;97.67;;;;;;;18.27;71.64;102202.16;4987980;28;104105;-55
2022/10/06 11:25:03;;;;;;;91.15;86.53;;;;;;;18.28;72.21;102201.03;4988564;28;103964;-54
2022/10/06 11:27:39;;;;;;;98.27;93.23;;;;;;;18.27;72.16;102191.94;4992606;28;102731;-54